createdAt,value
2023-03-21T00:00:51.892Z,7.73
2023-03-21T00:03:21.907Z,5.23
2023-03-21T00:05:53.519Z,8.33
2023-03-21T00:08:22.941Z,9.33
2023-03-21T00:10:57.561Z,6.90
2023-03-21T00:13:28.810Z,5.50
2023-03-21T00:16:06.261Z,5.47
2023-03-21T00:18:42.506Z,7.53
2023-03-21T00:21:40.988Z,6.50
2023-03-21T00:24:03.582Z,6.63
2023-03-21T00:26:31.744Z,4.80
2023-03-21T00:29:01.678Z,5.47
2023-03-21T00:31:29.804Z,7.00
2023-03-21T00:34:02.709Z,7.33
2023-03-21T00:36:32.874Z,9.20
2023-03-21T00:39:01.854Z,4.20
2023-03-21T00:41:45.322Z,4.43
2023-03-21T00:44:15.845Z,4.70
2023-03-21T00:47:00.752Z,7.90
2023-03-21T00:49:38.200Z,4.03
2023-03-21T00:52:18.298Z,7.50
2023-03-21T00:54:48.407Z,3.17
2023-03-21T00:57:16.887Z,6.20
2023-03-21T00:59:44.984Z,5.90
2023-03-21T01:02:15.217Z,4.67
2023-03-21T01:04:44.893Z,3.27
2023-03-21T01:07:13.017Z,4.37
2023-03-21T01:09:41.102Z,5.80
2023-03-21T01:12:10.089Z,9.13
2023-03-21T01:14:38.641Z,4.83
2023-03-21T01:17:06.830Z,5.20
2023-03-21T01:19:48.741Z,4.60
2023-03-21T01:22:21.259Z,5.97
2023-03-21T01:24:56.915Z,4.20
2023-03-21T01:27:28.664Z,5.23
2023-03-21T01:29:56.884Z,6.10
2023-03-21T01:32:25.312Z,6.70
2023-03-21T01:34:53.564Z,3.03
2023-03-21T01:37:23.121Z,5.60
2023-03-21T01:39:51.440Z,5.07
2023-03-21T01:42:19.987Z,8.10
2023-03-21T01:44:56.821Z,2.90
2023-03-21T01:47:25.100Z,6.00
2023-03-21T01:49:56.573Z,5.23
2023-03-21T01:52:36.954Z,4.73
2023-03-21T01:55:07.893Z,5.17
2023-03-21T01:57:49.507Z,4.13
2023-03-21T02:00:29.642Z,6.47
2023-03-21T02:03:09.740Z,6.00
2023-03-21T02:05:45.459Z,6.57
2023-03-21T02:08:15.032Z,6.47
2023-03-21T02:10:45.297Z,7.20
2023-03-21T02:13:13.487Z,6.03
2023-03-21T02:15:48.176Z,5.60
2023-03-21T02:18:22.598Z,3.40
2023-03-21T02:21:12.221Z,8.50
2023-03-21T02:24:22.033Z,2.90
2023-03-21T02:27:04.143Z,5.70
2023-03-21T02:29:55.847Z,4.07
2023-03-21T02:32:37.890Z,5.07
2023-03-21T02:35:30.605Z,4.57
2023-03-21T02:38:05.120Z,4.53
2023-03-21T02:40:39.866Z,7.30
2023-03-21T02:43:23.039Z,4.03
2023-03-21T02:45:59.281Z,4.70
2023-03-21T02:48:44.453Z,3.17
2023-03-21T02:51:21.140Z,6.77
2023-03-21T02:54:21.383Z,5.67
2023-03-21T02:56:43.072Z,5.37
2023-03-21T02:59:11.886Z,3.63
2023-03-21T03:01:40.010Z,6.60
2023-03-21T03:04:19.590Z,5.03
2023-03-21T03:07:08.680Z,6.27
2023-03-21T03:09:49.101Z,5.03
2023-03-21T03:12:26.670Z,6.17
2023-03-21T03:15:05.222Z,4.90
2023-03-21T03:17:45.085Z,8.07
2023-03-21T03:20:27.201Z,4.27
2023-03-21T03:23:01.561Z,7.30
2023-03-21T03:25:42.814Z,4.63
2023-03-21T03:28:14.432Z,4.43
2023-03-21T03:30:57.160Z,6.90
2023-03-21T03:33:34.804Z,4.73
2023-03-21T03:36:06.816Z,9.90
2023-03-21T03:38:37.235Z,5.87
2023-03-21T03:41:12.272Z,8.73
2023-03-21T03:43:45.156Z,6.80
2023-03-21T03:46:19.035Z,8.80
2023-03-21T03:48:53.279Z,6.33
2023-03-21T03:51:26.522Z,7.53
2023-03-21T03:53:58.875Z,12.43
2023-03-21T03:56:29.973Z,9.63
2023-03-21T03:58:58.722Z,6.00
2023-03-21T04:01:28.213Z,6.47
2023-03-21T04:04:10.401Z,10.90
2023-03-21T04:06:53.051Z,4.60
2023-03-21T04:09:31.350Z,8.40
2023-03-21T04:12:07.017Z,9.40
2023-03-21T04:14:43.953Z,5.83
2023-03-21T04:17:13.513Z,7.53
2023-03-21T04:19:41.669Z,8.60
2023-03-21T04:22:09.959Z,11.03
2023-03-21T04:24:38.678Z,12.07
2023-03-21T04:27:08.241Z,6.70
2023-03-21T04:29:36.375Z,8.43
2023-03-21T04:32:04.500Z,7.40
2023-03-21T04:34:32.930Z,6.50
2023-03-21T04:37:00.949Z,6.97
2023-03-21T04:39:28.926Z,8.60
2023-03-21T04:41:57.395Z,9.40
2023-03-21T04:44:27.144Z,12.70
2023-03-21T04:46:55.213Z,7.70
2023-03-21T04:49:23.250Z,12.37
2023-03-21T04:51:51.440Z,10.03
2023-03-21T04:54:21.122Z,8.77
2023-03-21T04:56:49.261Z,7.83
2023-03-21T04:59:17.963Z,8.10
2023-03-21T05:01:47.473Z,11.77
2023-03-21T05:04:15.800Z,8.50
2023-03-21T05:06:44.373Z,8.53
2023-03-21T05:09:13.041Z,8.63
2023-03-21T05:11:41.910Z,6.83
2023-03-21T05:14:12.396Z,8.97
2023-03-21T05:16:48.668Z,15.33
2023-03-21T05:19:19.125Z,8.20
2023-03-21T05:21:47.561Z,12.10
2023-03-21T05:24:17.036Z,10.40
2023-03-21T05:26:50.477Z,12.50
2023-03-21T05:29:20.361Z,8.03
2023-03-21T05:31:48.896Z,9.53
2023-03-21T05:34:18.641Z,14.13
2023-03-21T05:36:47.013Z,11.10
2023-03-21T05:39:15.004Z,9.60
2023-03-21T05:41:43.093Z,11.40
2023-03-21T05:44:11.181Z,10.47
2023-03-21T05:46:39.326Z,10.90
2023-03-21T05:49:07.570Z,8.17
2023-03-21T05:51:37.339Z,12.00
2023-03-21T05:54:06.480Z,10.60
2023-03-21T05:56:34.666Z,9.00
2023-03-21T05:59:02.714Z,6.10
2023-03-21T06:01:31.048Z,8.07
2023-03-21T06:03:59.520Z,10.73
2023-03-21T06:06:29.115Z,10.90
2023-03-21T06:08:59.228Z,5.27
2023-03-21T06:11:30.045Z,8.40
2023-03-21T06:13:58.430Z,9.97
2023-03-21T06:16:26.872Z,8.00
2023-03-21T06:18:55.728Z,7.83
2023-03-21T06:21:26.714Z,7.93
2023-03-21T06:23:55.396Z,13.20
2023-03-21T06:26:28.267Z,8.53
2023-03-21T06:28:57.680Z,8.90
2023-03-21T06:31:37.179Z,9.90
2023-03-21T06:34:06.947Z,8.83
2023-03-21T06:36:36.198Z,9.57
2023-03-21T06:39:05.252Z,7.70
2023-03-21T06:41:35.802Z,12.87
2023-03-21T06:44:04.771Z,10.47
2023-03-21T06:46:33.498Z,7.90
2023-03-21T06:49:02.197Z,12.10
2023-03-21T06:51:30.975Z,12.10
2023-03-21T06:53:59.552Z,9.70
2023-03-21T06:56:28.193Z,9.13
2023-03-21T06:58:57.871Z,7.30
2023-03-21T07:01:27.686Z,6.77
2023-03-21T07:03:57.452Z,14.60
2023-03-21T07:06:26.497Z,13.13
2023-03-21T07:08:55.448Z,9.43
2023-03-21T07:11:24.517Z,8.23
2023-03-21T07:13:53.487Z,10.90
2023-03-21T07:16:23.195Z,5.97
2023-03-21T07:18:51.187Z,11.97
2023-03-21T07:21:19.744Z,9.30
2023-03-21T07:23:50.269Z,8.53
2023-03-21T07:26:18.876Z,7.23
2023-03-21T07:28:47.086Z,6.60
2023-03-21T07:31:17.335Z,8.70
2023-03-21T07:33:47.008Z,10.97
2023-03-21T07:36:20.026Z,8.50
2023-03-21T07:38:48.108Z,6.90
2023-03-21T07:43:44.271Z,6.50
2023-03-21T07:46:12.351Z,7.05
2023-03-21T07:48:40.366Z,6.47
2023-03-21T07:51:10.013Z,7.10
2023-03-21T07:53:38.248Z,11.23
2023-03-21T07:56:07.643Z,8.70
2023-03-21T07:58:35.726Z,6.13
2023-03-21T08:01:03.710Z,6.82
2023-03-21T08:03:33.379Z,6.95
2023-03-21T08:06:02.022Z,3.88
2023-03-21T08:08:32.032Z,8.82
2023-03-21T08:11:00.365Z,6.35
2023-03-21T08:13:29.163Z,5.57
2023-03-21T08:15:57.272Z,5.97
2023-03-21T08:18:25.522Z,5.07
2023-03-21T08:20:54.357Z,4.90
2023-03-21T08:23:23.789Z,4.90
2023-03-21T08:25:54.893Z,8.63
2023-03-21T08:28:23.758Z,6.97
2023-03-21T08:30:52.123Z,5.47
2023-03-21T08:33:20.527Z,5.60
2023-03-21T08:35:49.059Z,7.88
2023-03-21T08:38:17.338Z,8.23
2023-03-21T08:40:51.977Z,5.72
2023-03-21T08:43:21.416Z,4.32
2023-03-21T08:45:49.953Z,5.80
2023-03-21T08:48:18.074Z,5.55
2023-03-21T08:50:46.840Z,4.68
2023-03-21T08:53:15.334Z,10.70
2023-03-21T08:55:44.506Z,7.47
2023-03-21T08:58:12.784Z,4.00
2023-03-21T09:00:42.422Z,6.38
2023-03-21T09:03:11.765Z,6.88
2023-03-21T09:05:40.234Z,4.93
2023-03-21T09:08:08.825Z,5.40
2023-03-21T09:10:37.233Z,4.05
2023-03-21T09:13:06.076Z,10.98
2023-03-21T09:15:35.563Z,3.80
2023-03-21T09:18:13.848Z,8.90
2023-03-21T09:20:43.214Z,5.70
2023-03-21T09:23:12.245Z,3.55
2023-03-21T09:25:40.969Z,5.95
2023-03-21T09:28:09.806Z,5.30
2023-03-21T09:30:38.768Z,5.45
2023-03-21T09:33:09.004Z,4.35
2023-03-21T09:35:37.707Z,4.53
2023-03-21T09:38:06.326Z,6.00
2023-03-21T09:40:52.827Z,4.88
2023-03-21T09:43:34.299Z,4.78
2023-03-21T09:46:11.593Z,4.95
2023-03-21T09:48:57.750Z,4.90
2023-03-21T09:51:30.245Z,6.55
2023-03-21T09:54:02.740Z,5.53
2023-03-21T09:56:31.350Z,7.32
2023-03-21T09:59:01.514Z,4.88
2023-03-21T10:01:32.966Z,8.85
2023-03-21T10:04:05.956Z,8.07
2023-03-21T10:06:40.219Z,3.30
2023-03-21T10:09:14.537Z,6.97
2023-03-21T10:11:46.312Z,6.32
2023-03-21T10:14:20.277Z,4.82
2023-03-21T10:16:51.074Z,6.00
2023-03-21T10:19:21.181Z,4.88
2023-03-21T10:22:02.636Z,4.72
2023-03-21T10:24:35.014Z,5.57
2023-03-21T10:27:04.371Z,7.18
2023-03-21T10:29:43.340Z,5.25
2023-03-21T10:32:13.922Z,5.32
2023-03-21T10:34:46.963Z,6.50
2023-03-21T10:37:16.868Z,4.20
2023-03-21T10:39:48.305Z,5.10
2023-03-21T10:42:23.500Z,3.95
2023-03-21T10:44:53.690Z,5.90
2023-03-21T10:47:23.841Z,4.70
2023-03-21T10:50:10.515Z,5.03
2023-03-21T10:52:43.368Z,5.70
2023-03-21T10:55:21.380Z,6.32
2023-03-21T10:57:50.151Z,3.65
2023-03-21T11:00:22.525Z,4.55
2023-03-21T11:02:52.310Z,5.55
2023-03-21T11:05:25.227Z,4.50
2023-03-21T11:08:01.535Z,5.57
2023-03-21T11:10:32.312Z,5.53
2023-03-21T11:13:06.664Z,7.40
2023-03-21T11:15:42.986Z,4.22
2023-03-21T11:18:20.603Z,5.22
2023-03-21T11:20:55.788Z,6.32
2023-03-21T11:23:29.675Z,5.97
2023-03-21T11:26:00.535Z,6.90
2023-03-21T11:28:37.155Z,5.90
2023-03-21T11:31:06.937Z,8.18
2023-03-21T11:33:38.473Z,7.22
2023-03-21T11:36:25.560Z,5.60
2023-03-21T11:38:55.319Z,3.92
2023-03-21T11:41:25.170Z,6.25
2023-03-21T11:43:54.297Z,6.30
2023-03-21T11:46:26.269Z,4.87
2023-03-21T11:48:56.210Z,6.53
2023-03-21T11:51:31.754Z,7.17
2023-03-21T11:54:08.347Z,7.50
2023-03-21T11:56:42.739Z,5.83
2023-03-21T11:59:27.880Z,6.07
2023-03-21T12:02:06.859Z,5.57
2023-03-21T12:04:41.592Z,5.20
2023-03-21T12:07:42.015Z,6.10
2023-03-21T12:10:31.677Z,4.80
2023-03-21T12:13:09.701Z,5.90
2023-03-21T12:15:44.242Z,7.43
2023-03-21T12:18:34.018Z,9.87
2023-03-21T12:21:08.101Z,6.53
2023-03-21T12:23:48.684Z,6.50
2023-03-21T12:26:24.360Z,3.80
2023-03-21T12:29:10.677Z,5.63
2023-03-21T12:31:50.787Z,4.60
2023-03-21T12:34:33.259Z,4.63
2023-03-21T12:37:11.124Z,5.30
2023-03-21T12:39:41.354Z,4.40
2023-03-21T12:42:40.481Z,6.40
2023-03-21T12:45:16.766Z,5.73
2023-03-21T12:47:50.528Z,7.33
2023-03-21T12:50:24.276Z,6.20
2023-03-21T12:52:57.020Z,7.13
2023-03-21T12:55:32.747Z,3.77
2023-03-21T12:58:05.850Z,8.33
2023-03-21T13:00:44.189Z,7.83
2023-03-21T13:03:30.272Z,4.73
2023-03-21T13:08:37.025Z,5.13
2023-03-21T13:11:08.693Z,8.00
2023-03-21T13:13:40.624Z,4.37
2023-03-21T13:16:14.070Z,3.50
2023-03-21T13:18:59.259Z,6.50
2023-03-21T13:21:44.383Z,7.90
2023-03-21T13:24:27.913Z,4.60
2023-03-21T13:27:06.535Z,22.30
2023-03-21T13:29:44.179Z,4.10
2023-03-21T13:32:20.018Z,7.00
2023-03-21T13:34:56.214Z,3.37
2023-03-21T13:37:26.668Z,4.80
2023-03-21T13:39:54.786Z,6.20
2023-03-21T13:42:31.783Z,6.07
2023-03-21T13:45:02.297Z,6.60
2023-03-21T13:47:40.110Z,4.43
2023-03-21T13:50:27.679Z,7.47
2023-03-21T13:53:20.591Z,5.13
2023-03-21T13:56:08.352Z,4.00
2023-03-21T13:58:40.005Z,3.53
2023-03-21T14:01:31.986Z,4.70
2023-03-21T14:04:02.192Z,3.27
2023-03-21T14:06:39.096Z,5.73
2023-03-21T14:09:07.935Z,2.40
2023-03-21T14:11:41.965Z,7.10
2023-03-21T14:14:14.153Z,5.23
2023-03-21T14:16:43.237Z,4.67
2023-03-21T14:19:13.695Z,5.87
2023-03-21T14:21:50.402Z,10.67
2023-03-21T14:24:19.427Z,3.83
2023-03-21T14:26:49.871Z,6.00
2023-03-21T14:29:26.571Z,3.20
2023-03-21T14:31:56.218Z,2.33
2023-03-21T14:34:26.154Z,3.20
2023-03-21T14:36:58.827Z,2.90
2023-03-21T14:39:29.803Z,5.10
2023-03-21T14:42:04.855Z,3.00
2023-03-21T14:44:53.819Z,6.37
2023-03-21T14:47:25.573Z,2.87
2023-03-21T14:49:57.586Z,3.50
2023-03-21T14:52:28.108Z,3.33
2023-03-21T14:54:58.210Z,3.70
2023-03-21T14:57:30.079Z,2.50
2023-03-21T15:00:06.350Z,2.50
2023-03-21T15:02:40.394Z,1.93
2023-03-21T15:05:15.534Z,3.40
2023-03-21T15:07:44.163Z,2.93
2023-03-21T15:10:18.227Z,2.80
2023-03-21T15:12:55.042Z,3.47
2023-03-21T15:15:27.578Z,3.83
2023-03-21T15:17:59.583Z,1.73
2023-03-21T15:20:33.350Z,3.23
2023-03-21T15:23:04.792Z,3.10
2023-03-21T15:25:37.270Z,6.30
2023-03-21T15:28:06.700Z,8.20
2023-03-21T15:30:36.454Z,5.13
2023-03-21T15:33:10.544Z,2.97
2023-03-21T15:35:46.178Z,4.10
2023-03-21T15:38:24.485Z,5.50
2023-03-21T15:41:14.481Z,2.87
2023-03-21T15:43:43.282Z,1.40
2023-03-21T15:46:18.103Z,3.67
2023-03-21T15:48:47.031Z,4.70
2023-03-21T15:51:23.202Z,2.07
2023-03-21T15:53:54.833Z,2.17
2023-03-21T15:56:24.054Z,3.20
2023-03-21T15:58:54.857Z,1.70
2023-03-21T16:01:27.378Z,4.57
2023-03-21T16:04:10.159Z,2.90
2023-03-21T16:06:40.185Z,2.60
2023-03-21T16:09:14.275Z,3.53
2023-03-21T16:11:43.918Z,2.57
2023-03-21T16:14:13.910Z,2.83
2023-03-21T16:16:43.640Z,2.10
2023-03-21T16:19:11.808Z,3.43
2023-03-21T16:21:40.073Z,2.23
2023-03-21T16:24:12.595Z,3.47
2023-03-21T16:26:45.771Z,5.10
2023-03-21T16:29:18.427Z,3.73
2023-03-21T16:31:50.963Z,4.40
2023-03-21T16:34:20.689Z,6.60
2023-03-21T16:36:50.802Z,6.20
2023-03-21T16:39:22.668Z,2.17
2023-03-21T16:41:51.405Z,5.27
2023-03-21T16:44:20.081Z,6.07
2023-03-21T16:46:49.562Z,3.23
2023-03-21T16:49:21.373Z,4.73
2023-03-21T16:51:49.396Z,2.40
2023-03-21T16:54:17.423Z,2.50
2023-03-21T16:56:50.142Z,2.33
2023-03-21T16:59:18.270Z,3.40
2023-03-21T17:01:48.168Z,5.80
2023-03-21T17:04:19.054Z,2.87
2023-03-21T17:06:52.277Z,3.33
2023-03-21T17:09:22.593Z,1.80
2023-03-21T17:11:53.551Z,4.23
2023-03-21T17:14:22.225Z,6.40
2023-03-21T17:16:50.381Z,7.07
2023-03-21T17:19:23.838Z,9.83
2023-03-21T17:21:51.902Z,3.27
2023-03-21T17:24:23.196Z,7.10
2023-03-21T17:26:51.262Z,3.20
2023-03-21T17:29:19.419Z,4.10
2023-03-21T17:31:50.262Z,5.20
2023-03-21T17:34:19.991Z,5.67
2023-03-21T17:36:49.931Z,4.20
2023-03-21T17:39:21.459Z,8.00
2023-03-21T17:41:50.077Z,7.40
2023-03-21T17:44:18.105Z,7.37
2023-03-21T17:46:46.623Z,6.27
2023-03-21T17:49:16.500Z,6.13
2023-03-21T17:51:46.982Z,7.63
2023-03-21T17:54:15.228Z,6.33
2023-03-21T17:56:43.357Z,6.53
2023-03-21T17:59:15.106Z,6.90
2023-03-21T18:01:43.283Z,9.67
2023-03-21T18:04:11.318Z,6.17
2023-03-21T18:06:39.877Z,5.60
2023-03-21T18:09:11.941Z,7.10
2023-03-21T18:11:41.591Z,7.13
2023-03-21T18:14:19.457Z,6.43
2023-03-21T18:16:51.051Z,5.60
2023-03-21T18:19:19.262Z,4.80
2023-03-21T18:21:47.223Z,9.40
2023-03-21T18:24:16.871Z,8.83
2023-03-21T18:26:46.128Z,8.13
2023-03-21T18:32:07.694Z,7.57
2023-03-21T18:34:37.350Z,9.00
2023-03-21T18:37:07.608Z,6.93
2023-03-21T18:39:38.186Z,8.10
2023-03-21T18:42:06.969Z,9.30
2023-03-21T18:44:45.533Z,9.87
2023-03-21T18:47:14.304Z,8.30
2023-03-21T18:50:13.313Z,5.70
2023-03-21T18:52:30.471Z,6.90
2023-03-21T18:54:59.855Z,8.13
2023-03-21T18:57:36.468Z,7.80
2023-03-21T19:00:11.124Z,7.30
2023-03-21T19:02:45.621Z,8.47
2023-03-21T19:05:15.682Z,9.10
2023-03-21T19:07:43.967Z,7.80
2023-03-21T19:10:19.378Z,10.73
2023-03-21T19:12:48.832Z,13.60
2023-03-21T19:15:19.670Z,9.27
2023-03-21T19:20:37.912Z,13.20
2023-03-21T19:23:08.238Z,6.97
2023-03-21T19:25:39.065Z,8.73
2023-03-21T19:28:07.263Z,6.60
2023-03-21T19:30:35.478Z,6.47
2023-03-21T19:33:03.442Z,5.50
2023-03-21T19:35:32.026Z,7.10
2023-03-21T19:38:00.014Z,6.17
2023-03-21T19:40:28.188Z,6.43
2023-03-21T19:42:58.118Z,6.93
2023-03-21T19:45:26.548Z,6.20
2023-03-21T19:47:54.678Z,12.10
2023-03-21T19:50:49.141Z,5.97
2023-03-21T19:53:17.476Z,10.70
2023-03-21T19:55:45.758Z,7.37
2023-03-21T19:58:16.407Z,6.80
2023-03-21T20:00:44.783Z,8.83
2023-03-21T20:03:13.875Z,6.87
2023-03-21T20:05:42.107Z,7.87
2023-03-21T20:08:11.085Z,8.87
2023-03-21T20:10:39.486Z,7.50
2023-03-21T20:13:07.781Z,6.57
2023-03-21T20:15:46.006Z,10.03
2023-03-21T20:18:16.222Z,12.63
2023-03-21T20:20:44.229Z,10.73
2023-03-21T20:23:12.195Z,9.40
2023-03-21T20:25:41.024Z,14.40
2023-03-21T20:28:24.274Z,12.63
2023-03-21T20:30:58.282Z,12.17
2023-03-21T20:33:26.517Z,9.07
2023-03-21T20:38:48.496Z,14.60
2023-03-21T20:41:17.024Z,10.50
2023-03-21T20:44:28.513Z,8.27
2023-03-21T20:46:36.452Z,10.57
2023-03-21T20:49:07.345Z,12.33
2023-03-21T20:54:24.501Z,10.43
2023-03-21T20:56:52.518Z,12.87
2023-03-21T20:59:26.411Z,14.53
2023-03-21T21:01:58.212Z,13.40
2023-03-21T21:04:46.879Z,8.43
2023-03-21T21:07:18.067Z,11.80
2023-03-21T21:09:47.072Z,12.57
2023-03-21T21:12:17.297Z,17.13
2023-03-21T21:14:45.655Z,10.97
2023-03-21T21:20:12.212Z,11.47
2023-03-21T21:22:42.890Z,11.47
2023-03-21T21:25:15.615Z,13.30
2023-03-21T21:27:43.930Z,10.63
2023-03-21T21:30:13.509Z,9.20
2023-03-21T21:32:42.756Z,9.90
2023-03-21T21:35:11.027Z,11.17
2023-03-21T21:37:41.856Z,13.07
2023-03-21T21:40:12.966Z,12.00
2023-03-21T21:42:42.773Z,12.47
2023-03-21T21:45:11.944Z,13.20
2023-03-21T21:47:40.592Z,13.57
2023-03-21T21:50:11.801Z,12.73
2023-03-21T21:52:43.475Z,14.13
2023-03-21T21:55:13.124Z,10.93
2023-03-21T21:57:41.161Z,13.23
2023-03-21T22:00:13.094Z,13.13
2023-03-21T22:02:42.111Z,14.83
2023-03-21T22:05:11.757Z,11.77
2023-03-21T22:07:39.886Z,14.90
2023-03-21T22:10:08.702Z,11.70
2023-03-21T22:12:36.650Z,11.03
2023-03-21T22:15:06.851Z,12.77
2023-03-21T22:17:34.955Z,11.90
2023-03-21T22:20:06.812Z,12.13
2023-03-21T22:22:37.081Z,17.47
2023-03-21T22:25:06.258Z,10.53
2023-03-21T22:27:34.867Z,12.77
2023-03-21T22:30:05.559Z,11.17
2023-03-21T22:32:34.129Z,12.10
2023-03-21T22:35:02.821Z,11.20
2023-03-21T22:37:31.040Z,10.70
2023-03-21T22:40:00.408Z,14.00
2023-03-21T22:42:28.715Z,11.63
2023-03-21T22:44:56.650Z,11.20
2023-03-21T22:47:24.612Z,14.53
2023-03-21T22:49:52.555Z,16.80
2023-03-21T22:52:20.485Z,11.67
2023-03-21T22:54:49.150Z,18.10
2023-03-21T22:57:20.139Z,16.67
2023-03-21T22:59:48.336Z,13.57
2023-03-21T23:02:16.690Z,15.30
2023-03-21T23:04:44.908Z,15.27
2023-03-21T23:07:12.929Z,13.60
2023-03-21T23:09:41.115Z,14.13
2023-03-21T23:12:09.122Z,15.40
2023-03-21T23:14:38.423Z,16.00
2023-03-21T23:17:06.388Z,18.67
2023-03-21T23:19:34.315Z,16.97
2023-03-21T23:22:02.253Z,17.77
2023-03-21T23:24:30.262Z,15.60
2023-03-21T23:26:58.201Z,15.13
2023-03-21T23:29:26.171Z,16.40
2023-03-21T23:31:55.508Z,11.77
2023-03-21T23:34:23.529Z,15.70
2023-03-21T23:36:51.579Z,18.50
2023-03-21T23:39:20.154Z,12.00
2023-03-21T23:41:48.080Z,11.63
2023-03-21T23:44:16.346Z,17.47
2023-03-21T23:46:44.267Z,16.60
2023-03-21T23:49:15.054Z,13.57
2023-03-21T23:51:43.113Z,14.97
2023-03-21T23:54:11.182Z,12.03
2023-03-21T23:56:39.455Z,14.40
2023-03-21T23:59:07.401Z,14.97
